createdAt,value
2022-11-18T00:01:22.820Z,239.45
2022-11-18T00:03:50.402Z,53.03
2022-11-18T00:06:19.427Z,174.98
2022-11-18T00:08:49.478Z,83.18
2022-11-18T00:11:39.978Z,36.15
2022-11-18T00:14:22.161Z,792.75
2022-11-18T00:19:23.706Z,182.88
2022-11-18T00:21:50.837Z,913.60
2022-11-18T00:24:17.646Z,181.70
2022-11-18T00:26:44.166Z,874.28
2022-11-18T00:29:10.941Z,822.67
2022-11-18T00:31:38.019Z,369.23
2022-11-18T00:34:05.165Z,111.95
2022-11-18T00:36:32.512Z,424.30
2022-11-18T00:39:01.794Z,141.23
2022-11-18T00:41:48.269Z,85.63
2022-11-18T00:44:14.723Z,86.10
2022-11-18T00:46:41.770Z,80.32
2022-11-18T00:49:08.719Z,73.22
2022-11-18T00:51:38.042Z,110.78
2022-11-18T00:54:05.057Z,77.57
2022-11-18T00:56:31.846Z,142.48
2022-11-18T00:58:58.774Z,543.47
2022-11-18T01:01:25.958Z,168.27
2022-11-18T01:03:52.522Z,81.85
2022-11-18T01:06:19.071Z,60.47
2022-11-18T01:08:48.335Z,82.25
2022-11-18T01:11:33.440Z,65.68
2022-11-18T01:13:59.909Z,100.43
2022-11-18T01:16:28.225Z,91.38
2022-11-18T01:18:55.223Z,208.15
2022-11-18T01:21:22.880Z,49.30
2022-11-18T01:23:49.556Z,48.40
2022-11-18T01:26:17.230Z,39.90
2022-11-18T01:28:44.562Z,54.90
2022-11-18T01:31:19.371Z,110.35
2022-11-18T01:33:47.104Z,144.68
2022-11-18T01:36:17.940Z,105.90
2022-11-18T01:38:44.478Z,256.98
2022-11-18T01:41:14.048Z,282.55
2022-11-18T01:44:31.636Z,388.20
2022-11-18T01:46:58.119Z,470.30
2022-11-18T01:49:24.765Z,461.77
2022-11-18T01:51:56.679Z,122.53
2022-11-18T01:54:37.353Z,407.98
2022-11-18T01:57:11.703Z,705.17
2022-11-18T01:59:43.867Z,759.17
2022-11-18T02:02:14.222Z,615.97
2022-11-18T02:04:44.392Z,273.98
2022-11-18T02:07:12.155Z,203.57
2022-11-18T02:09:38.856Z,191.38
2022-11-18T02:12:07.835Z,419.98
2022-11-18T02:14:40.969Z,358.33
2022-11-18T02:17:42.544Z,344.08
2022-11-18T02:20:09.009Z,181.10
2022-11-18T02:23:06.552Z,676.58
2022-11-18T02:26:07.057Z,946.75
2022-11-18T02:29:03.041Z,680.90
2022-11-18T02:31:40.945Z,392.13
2022-11-18T02:34:14.478Z,570.47
2022-11-18T02:36:48.192Z,878.58
2022-11-18T02:39:23.003Z,429.60
2022-11-18T02:41:54.197Z,821.30
2022-11-18T02:44:24.988Z,349.85
2022-11-18T02:47:01.788Z,798.17
2022-11-18T02:49:54.467Z,276.60
2022-11-18T02:52:28.598Z,535.75
2022-11-18T02:54:59.060Z,407.58
2022-11-18T02:57:29.108Z,578.53
2022-11-18T02:59:55.806Z,545.85
2022-11-18T03:02:22.864Z,155.45
2022-11-18T03:04:53.652Z,381.45
2022-11-18T03:07:25.140Z,787.25
2022-11-18T03:09:53.002Z,604.95
2022-11-18T03:12:42.285Z,557.15
2022-11-18T03:15:16.353Z,281.55
2022-11-18T03:17:51.424Z,290.30
2022-11-18T03:20:33.219Z,339.38
2022-11-18T03:23:14.694Z,373.67
2022-11-18T03:25:47.685Z,882.40
2022-11-18T03:28:27.189Z,506.10
2022-11-18T03:31:08.433Z,186.23
2022-11-18T03:33:39.880Z,282.20
2022-11-18T03:36:09.613Z,302.45
2022-11-18T03:38:40.123Z,174.68
2022-11-18T03:41:11.287Z,401.42
2022-11-18T03:43:41.935Z,471.80
2022-11-18T03:46:20.888Z,583.13
2022-11-18T03:48:53.572Z,209.68
2022-11-18T03:51:46.170Z,381.95
2022-11-18T03:54:30.081Z,457.58
2022-11-18T03:57:04.070Z,301.30
2022-11-18T03:59:36.549Z,307.95
2022-11-18T04:02:14.924Z,147.82
2022-11-18T04:04:44.150Z,322.02
2022-11-18T04:07:35.708Z,347.25
2022-11-18T04:10:30.909Z,540.30
2022-11-18T04:13:00.622Z,129.77
2022-11-18T04:15:31.805Z,149.65
2022-11-18T04:17:59.199Z,343.67
2022-11-18T04:20:27.024Z,621.08
2022-11-18T04:22:53.522Z,1227.72
2022-11-18T04:25:20.047Z,705.40
2022-11-18T04:27:46.498Z,684.25
2022-11-18T04:30:13.315Z,347.83
2022-11-18T04:32:39.791Z,180.05
2022-11-18T04:35:06.552Z,375.08
2022-11-18T04:37:33.507Z,685.78
2022-11-18T04:40:00.102Z,375.80
2022-11-18T04:42:26.649Z,455.27
2022-11-18T04:44:53.168Z,471.05
2022-11-18T04:47:19.746Z,588.38
2022-11-18T04:49:46.235Z,701.35
2022-11-18T04:52:12.816Z,392.85
2022-11-18T04:54:39.285Z,564.63
2022-11-18T04:57:06.043Z,263.05
2022-11-18T04:59:32.547Z,515.45
2022-11-18T05:02:00.973Z,173.57
2022-11-18T05:04:30.159Z,399.85
2022-11-18T05:06:57.320Z,229.65
2022-11-18T05:09:30.255Z,317.23
2022-11-18T05:12:16.739Z,239.00
2022-11-18T05:14:49.319Z,395.88
2022-11-18T05:17:17.104Z,987.50
2022-11-18T05:19:43.570Z,370.42
2022-11-18T05:22:10.100Z,555.30
2022-11-18T05:24:36.627Z,630.92
2022-11-18T05:27:03.236Z,594.08
2022-11-18T05:29:29.726Z,865.83
2022-11-18T05:31:56.239Z,556.28
2022-11-18T05:34:22.883Z,770.42
2022-11-18T05:36:49.409Z,266.05
2022-11-18T05:39:16.269Z,788.13
2022-11-18T05:42:01.733Z,1118.57
2022-11-18T05:44:30.957Z,666.03
2022-11-18T05:47:00.291Z,145.32
2022-11-18T05:49:26.857Z,769.25
2022-11-18T05:51:53.343Z,259.17
2022-11-18T05:54:24.150Z,220.38
2022-11-18T05:56:51.205Z,769.75
2022-11-18T05:59:18.189Z,243.82
2022-11-18T06:01:54.620Z,177.10
2022-11-18T06:04:47.668Z,107.93
2022-11-18T06:07:21.916Z,151.43
2022-11-18T06:09:54.079Z,318.77
2022-11-18T06:12:25.175Z,67.15
2022-11-18T06:15:00.171Z,67.30
2022-11-18T06:17:37.426Z,109.85
2022-11-18T06:20:05.045Z,48.70
2022-11-18T06:22:31.707Z,42.65
2022-11-18T06:24:58.237Z,41.88
2022-11-18T06:27:24.691Z,39.58
2022-11-18T06:29:51.195Z,35.70
2022-11-18T06:32:20.914Z,52.50
2022-11-18T06:34:47.373Z,42.47
2022-11-18T06:37:15.279Z,51.58
2022-11-18T06:39:41.965Z,42.28
2022-11-18T06:42:08.585Z,39.92
2022-11-18T06:44:35.141Z,39.65
2022-11-18T06:47:04.126Z,40.85
2022-11-18T06:49:30.575Z,42.13
2022-11-18T06:51:57.085Z,48.70
2022-11-18T06:54:23.640Z,42.53
2022-11-18T06:56:50.204Z,40.50
2022-11-18T06:59:22.188Z,39.10
2022-11-18T07:04:15.055Z,41.38
2022-11-18T07:06:41.561Z,57.20
2022-11-18T07:09:08.107Z,52.30
2022-11-18T07:11:34.689Z,48.80
2022-11-18T07:14:01.491Z,49.40
2022-11-18T07:16:28.570Z,44.33
2022-11-18T07:18:56.365Z,48.22
2022-11-18T07:21:27.765Z,39.85
2022-11-18T07:23:55.629Z,57.10
2022-11-18T07:26:22.365Z,62.80
2022-11-18T07:28:49.773Z,313.92
2022-11-18T07:31:18.594Z,922.50
2022-11-18T07:33:46.190Z,505.80
2022-11-18T07:36:14.997Z,712.70
2022-11-18T07:38:42.192Z,410.33
2022-11-18T07:41:08.689Z,765.72
2022-11-18T07:43:35.900Z,238.68
2022-11-18T07:46:12.669Z,642.65
2022-11-18T07:48:39.802Z,910.42
2022-11-18T07:51:10.183Z,249.68
2022-11-18T07:53:40.038Z,164.73
2022-11-18T07:56:07.079Z,419.33
2022-11-18T07:58:33.674Z,452.95
2022-11-18T08:01:12.444Z,956.15
2022-11-18T08:03:39.908Z,498.80
2022-11-18T08:06:08.271Z,1009.10
2022-11-18T08:08:36.031Z,1249.72
2022-11-18T08:11:06.559Z,692.53
2022-11-18T08:13:35.971Z,534.28
2022-11-18T08:16:03.503Z,613.97
2022-11-18T08:18:31.883Z,173.77
2022-11-18T08:21:05.221Z,455.30
2022-11-18T08:23:36.137Z,556.65
2022-11-18T08:26:11.387Z,262.95
2022-11-18T08:28:38.131Z,714.47
2022-11-18T08:31:14.879Z,719.90
2022-11-18T08:33:41.785Z,487.15
2022-11-18T08:36:11.040Z,280.10
2022-11-18T08:38:37.537Z,161.18
2022-11-18T08:41:06.039Z,180.68
2022-11-18T08:43:33.182Z,350.40
2022-11-18T08:45:59.668Z,421.98
2022-11-18T08:48:26.148Z,156.10
2022-11-18T08:50:53.099Z,354.42
2022-11-18T08:53:19.591Z,439.83
2022-11-18T08:55:46.056Z,101.85
2022-11-18T08:58:12.548Z,180.73
2022-11-18T09:00:38.980Z,295.05
2022-11-18T09:03:05.475Z,162.02
2022-11-18T09:05:31.914Z,113.85
2022-11-18T09:07:58.403Z,313.38
2022-11-18T09:10:24.859Z,62.20
2022-11-18T09:12:51.336Z,59.88
2022-11-18T09:15:17.984Z,217.68
2022-11-18T09:17:44.894Z,166.40
2022-11-18T09:20:11.437Z,226.55
2022-11-18T09:22:39.181Z,125.50
2022-11-18T09:25:06.223Z,116.68
2022-11-18T09:27:32.675Z,119.03
2022-11-18T09:29:59.202Z,63.75
2022-11-18T09:32:25.704Z,54.30
2022-11-18T09:34:52.268Z,94.22
2022-11-18T09:37:19.028Z,50.55
2022-11-18T09:39:45.588Z,78.85
2022-11-18T09:42:54.115Z,47.83
2022-11-18T09:45:28.460Z,43.63
2022-11-18T09:48:00.723Z,49.60
2022-11-18T09:50:48.630Z,53.78
2022-11-18T09:53:20.173Z,43.80
2022-11-18T09:55:48.883Z,48.55
2022-11-18T09:58:23.721Z,41.92
2022-11-18T10:00:50.377Z,39.22
2022-11-18T10:03:30.189Z,37.50
2022-11-18T10:06:03.825Z,43.00
2022-11-18T10:08:55.963Z,35.83
2022-11-18T10:11:38.644Z,36.97
2022-11-18T10:14:33.873Z,31.88
2022-11-18T10:17:31.522Z,38.85
2022-11-18T10:20:07.006Z,39.03
2022-11-18T10:22:56.257Z,40.30
2022-11-18T10:25:22.751Z,42.38
2022-11-18T10:27:50.766Z,37.88
2022-11-18T10:30:20.948Z,40.35
2022-11-18T10:33:19.774Z,42.40
2022-11-18T10:35:46.391Z,32.70
2022-11-18T10:38:12.820Z,31.25
2022-11-18T10:41:01.613Z,28.60
2022-11-18T10:43:46.529Z,31.33
2022-11-18T10:46:28.179Z,32.75
2022-11-18T10:49:21.248Z,26.60
2022-11-18T10:52:06.203Z,33.60
2022-11-18T10:54:33.409Z,27.83
2022-11-18T10:57:11.004Z,30.65
2022-11-18T10:59:55.312Z,109.38
2022-11-18T11:02:54.054Z,175.15
2022-11-18T11:05:23.365Z,118.43
2022-11-18T11:08:35.727Z,50.33
2022-11-18T11:11:04.329Z,40.90
2022-11-18T11:13:32.507Z,235.85
2022-11-18T11:16:03.497Z,57.85
2022-11-18T11:18:42.664Z,38.83
2022-11-18T11:21:22.822Z,40.15
2022-11-18T11:23:49.290Z,33.30
2022-11-18T11:29:49.060Z,46.40
2022-11-18T11:32:19.258Z,463.85
2022-11-18T11:35:13.298Z,117.28
2022-11-18T11:37:56.069Z,41.03
2022-11-18T11:40:41.257Z,30.88
2022-11-18T11:43:43.500Z,30.10
2022-11-18T11:46:45.166Z,28.13
2022-11-18T11:49:19.449Z,30.17
2022-11-18T11:51:53.915Z,30.40
2022-11-18T11:54:26.321Z,30.77
2022-11-18T11:57:04.059Z,27.65
2022-11-18T11:59:36.333Z,28.73
2022-11-18T12:02:33.391Z,27.95
2022-11-18T12:05:39.341Z,25.08
2022-11-18T12:08:25.334Z,25.05
2022-11-18T12:10:56.224Z,27.98
2022-11-18T12:13:56.723Z,32.53
2022-11-18T12:17:00.764Z,25.23
2022-11-18T12:19:27.449Z,27.02
2022-11-18T12:21:58.197Z,27.77
2022-11-18T12:24:31.302Z,27.52
2022-11-18T12:27:13.768Z,29.75
2022-11-18T12:29:49.078Z,30.25
2022-11-18T12:32:35.315Z,31.38
2022-11-18T12:35:21.633Z,31.63
2022-11-18T12:37:51.168Z,34.40
2022-11-18T12:40:36.993Z,25.75
2022-11-18T12:43:25.015Z,27.90
2022-11-18T12:45:56.159Z,28.23
2022-11-18T12:48:31.630Z,28.83
2022-11-18T12:51:10.961Z,28.75
2022-11-18T12:53:40.335Z,24.70
2022-11-18T12:56:25.118Z,27.95
2022-11-18T12:58:56.786Z,23.15
2022-11-18T13:01:26.270Z,25.02
2022-11-18T13:04:05.359Z,25.30
2022-11-18T13:06:34.702Z,22.40
2022-11-18T13:09:04.203Z,24.15
2022-11-18T13:11:47.660Z,21.80
2022-11-18T13:14:37.048Z,25.33
2022-11-18T13:17:41.617Z,23.13
2022-11-18T13:20:30.938Z,25.60
2022-11-18T13:23:17.064Z,23.83
2022-11-18T13:25:47.732Z,26.92
2022-11-18T13:28:19.234Z,25.95
2022-11-18T13:30:54.637Z,31.25
2022-11-18T13:33:21.297Z,30.73
2022-11-18T13:35:47.765Z,30.02
2022-11-18T13:38:28.020Z,32.03
2022-11-18T13:41:15.591Z,30.55
2022-11-18T13:43:42.108Z,32.17
2022-11-18T13:46:17.384Z,30.52
2022-11-18T13:48:54.536Z,33.28
2022-11-18T13:51:22.636Z,31.92
2022-11-18T13:53:49.124Z,34.17
2022-11-18T13:56:17.900Z,31.55
2022-11-18T13:59:16.240Z,35.53
2022-11-18T14:01:44.726Z,36.75
2022-11-18T14:04:27.560Z,40.65
2022-11-18T14:06:54.072Z,37.30
2022-11-18T14:09:27.399Z,38.38
2022-11-18T14:12:00.502Z,34.70
2022-11-18T14:14:36.338Z,33.13
2022-11-18T14:17:16.003Z,35.03
2022-11-18T14:19:42.974Z,37.33
2022-11-18T14:22:24.706Z,42.08
2022-11-18T14:25:22.229Z,47.00
2022-11-18T14:27:53.822Z,52.50
2022-11-18T14:30:37.029Z,51.72
2022-11-18T14:33:03.487Z,54.00
2022-11-18T14:35:33.556Z,52.92
2022-11-18T14:38:35.266Z,54.65
2022-11-18T14:40:54.964Z,59.58
2022-11-18T14:43:21.589Z,57.58
2022-11-18T14:45:49.828Z,44.13
2022-11-18T14:48:20.066Z,51.08
2022-11-18T14:50:47.953Z,46.80
2022-11-18T14:53:14.463Z,49.58
2022-11-18T14:55:41.718Z,49.25
2022-11-18T14:58:14.143Z,51.22
2022-11-18T15:00:45.710Z,51.80
2022-11-18T15:03:12.283Z,40.00
2022-11-18T15:05:39.231Z,49.00
2022-11-18T15:08:05.780Z,51.58
2022-11-18T15:10:32.619Z,54.83
2022-11-18T15:12:59.109Z,56.92
2022-11-18T15:15:25.737Z,56.03
2022-11-18T15:17:54.046Z,58.50
2022-11-18T15:20:22.971Z,54.38
2022-11-18T15:22:49.675Z,59.72
2022-11-18T15:25:16.585Z,62.75
2022-11-18T15:27:44.248Z,57.03
2022-11-18T15:30:13.851Z,61.40
2022-11-18T15:32:40.598Z,55.88
2022-11-18T15:35:07.484Z,56.53
2022-11-18T15:37:33.982Z,54.60
2022-11-18T15:40:00.452Z,58.42
2022-11-18T15:42:26.958Z,53.90
2022-11-18T15:44:53.414Z,64.18
2022-11-18T15:47:19.964Z,64.55
2022-11-18T15:49:46.474Z,62.42
2022-11-18T15:52:13.036Z,66.63
2022-11-18T15:54:39.580Z,62.20
2022-11-18T15:57:06.114Z,63.28
2022-11-18T15:59:32.607Z,63.95
2022-11-18T16:01:59.132Z,64.57
2022-11-18T16:04:28.214Z,65.50
2022-11-18T16:06:54.925Z,65.68
2022-11-18T16:09:21.790Z,73.15
2022-11-18T16:12:06.890Z,75.38
2022-11-18T16:14:36.775Z,68.10
2022-11-18T16:17:03.314Z,70.60
2022-11-18T16:19:33.370Z,63.78
2022-11-18T16:22:00.083Z,61.38
2022-11-18T16:24:29.018Z,61.05
2022-11-18T16:26:56.263Z,65.05
2022-11-18T16:29:24.331Z,56.88
2022-11-18T16:31:52.501Z,54.63
2022-11-18T16:34:19.188Z,62.67
2022-11-18T16:36:52.074Z,64.60
2022-11-18T16:39:26.709Z,65.88
2022-11-18T16:42:06.447Z,60.78
2022-11-18T16:44:34.871Z,66.43
2022-11-18T16:47:01.564Z,59.22
2022-11-18T16:49:28.271Z,67.05
2022-11-18T16:51:58.645Z,61.35
2022-11-18T16:54:27.061Z,64.15
2022-11-18T16:56:56.104Z,70.38
2022-11-18T16:59:30.716Z,59.60
2022-11-18T17:01:59.573Z,67.30
2022-11-18T17:04:28.441Z,66.00
2022-11-18T17:06:55.649Z,63.58
2022-11-18T17:09:23.995Z,63.45
2022-11-18T17:11:52.154Z,60.13
2022-11-18T17:14:19.606Z,60.70
2022-11-18T17:16:46.447Z,57.60
2022-11-18T17:19:19.041Z,62.60
2022-11-18T17:21:46.935Z,62.30
2022-11-18T17:24:15.966Z,61.15
2022-11-18T17:26:43.143Z,59.55
2022-11-18T17:29:11.632Z,65.90
2022-11-18T17:31:38.804Z,57.42
2022-11-18T17:34:05.885Z,58.75
2022-11-18T17:36:32.680Z,60.35
2022-11-18T17:39:00.541Z,63.40
2022-11-18T17:41:47.150Z,65.72
2022-11-18T17:44:15.767Z,61.70
2022-11-18T17:46:42.946Z,63.58
2022-11-18T17:49:23.575Z,59.42
2022-11-18T17:51:53.487Z,61.75
2022-11-18T17:54:21.288Z,64.35
2022-11-18T17:56:49.853Z,61.78
2022-11-18T17:59:17.433Z,60.97
2022-11-18T18:01:45.442Z,65.22
2022-11-18T18:04:14.474Z,65.00
2022-11-18T18:06:41.389Z,59.25
2022-11-18T18:09:07.839Z,62.00
2022-11-18T18:11:34.404Z,60.33
2022-11-18T18:14:13.002Z,60.30
2022-11-18T18:16:45.472Z,60.10
2022-11-18T18:19:23.374Z,46.63
2022-11-18T18:21:50.647Z,62.72
2022-11-18T18:24:19.579Z,68.45
2022-11-18T18:26:46.594Z,60.90
2022-11-18T18:29:13.472Z,63.55
2022-11-18T18:31:40.075Z,61.47
2022-11-18T18:34:06.728Z,70.93
2022-11-18T18:36:33.711Z,63.35
2022-11-18T18:39:01.704Z,67.35
2022-11-18T18:41:28.336Z,68.45
2022-11-18T18:43:54.987Z,65.38
2022-11-18T18:46:31.107Z,70.70
2022-11-18T18:49:15.278Z,63.53
2022-11-18T18:51:44.493Z,62.15
2022-11-18T18:54:15.848Z,63.05
2022-11-18T18:56:43.188Z,63.97
2022-11-18T18:59:10.544Z,67.80
2022-11-18T19:01:39.364Z,89.45
2022-11-18T19:04:07.779Z,64.03
2022-11-18T19:09:23.277Z,64.75
2022-11-18T19:12:09.423Z,64.90
2022-11-18T19:14:36.071Z,65.32
2022-11-18T19:17:09.439Z,61.47
2022-11-18T19:19:55.701Z,53.17
2022-11-18T19:22:22.212Z,61.72
2022-11-18T19:24:50.569Z,64.43
2022-11-18T19:27:18.244Z,58.97
2022-11-18T19:29:45.128Z,60.22
2022-11-18T19:32:11.708Z,61.65
2022-11-18T19:34:38.218Z,61.42
2022-11-18T19:37:04.701Z,55.20
2022-11-18T19:39:31.324Z,58.78
2022-11-18T19:41:57.888Z,60.42
2022-11-18T19:44:24.356Z,59.42
2022-11-18T19:46:50.849Z,55.42
2022-11-18T19:49:19.563Z,62.05
2022-11-18T19:51:46.240Z,56.20
2022-11-18T19:54:12.841Z,55.40
2022-11-18T19:56:39.391Z,55.95
2022-11-18T19:59:05.843Z,55.50
2022-11-18T20:01:32.787Z,55.95
2022-11-18T20:04:02.949Z,50.08
2022-11-18T20:06:29.832Z,47.65
2022-11-18T20:08:57.152Z,48.30
2022-11-18T20:11:24.067Z,47.70
2022-11-18T20:13:51.096Z,43.17
2022-11-18T20:16:23.340Z,47.78
2022-11-18T20:18:54.904Z,47.65
2022-11-18T20:21:22.303Z,49.45
2022-11-18T20:23:58.841Z,47.95
2022-11-18T20:26:28.039Z,44.97
2022-11-18T20:28:57.639Z,48.60
2022-11-18T20:31:25.727Z,44.85
2022-11-18T20:33:54.309Z,45.03
2022-11-18T20:36:25.007Z,39.20
2022-11-18T20:38:54.180Z,44.03
2022-11-18T20:41:21.868Z,42.35
2022-11-18T20:43:48.861Z,41.38
2022-11-18T20:46:20.665Z,44.90
2022-11-18T20:48:47.836Z,43.25
2022-11-18T20:51:23.605Z,40.47
2022-11-18T20:53:51.195Z,37.60
2022-11-18T20:56:19.975Z,39.85
2022-11-18T20:58:47.114Z,38.60
2022-11-18T21:01:16.581Z,36.72
2022-11-18T21:03:52.669Z,36.08
2022-11-18T21:06:19.942Z,42.50
2022-11-18T21:08:46.650Z,37.88
2022-11-18T21:11:14.713Z,39.85
2022-11-18T21:14:00.371Z,38.50
2022-11-18T21:16:27.855Z,36.67
2022-11-18T21:18:54.774Z,38.88
2022-11-18T21:21:39.855Z,35.20
2022-11-18T21:24:06.643Z,41.88
2022-11-18T21:26:35.460Z,35.20
2022-11-18T21:29:04.944Z,39.03
2022-11-18T21:31:32.725Z,31.20
2022-11-18T21:33:59.408Z,38.33
2022-11-18T21:36:28.201Z,37.78
2022-11-18T21:38:56.856Z,40.63
2022-11-18T21:41:23.534Z,37.20
2022-11-18T21:44:05.128Z,38.40
2022-11-18T21:46:34.724Z,42.15
2022-11-18T21:49:01.935Z,34.35
2022-11-18T21:51:28.768Z,40.45
2022-11-18T21:53:55.203Z,39.58
2022-11-18T21:56:25.152Z,39.72
2022-11-18T21:58:52.701Z,39.13
2022-11-18T22:01:21.512Z,39.22
2022-11-18T22:03:55.202Z,38.10
2022-11-18T22:06:24.476Z,42.58
2022-11-18T22:08:52.342Z,40.03
2022-11-18T22:11:20.290Z,41.38
2022-11-18T22:13:47.052Z,37.63
2022-11-18T22:16:18.082Z,41.47
2022-11-18T22:18:50.345Z,44.55
2022-11-18T22:21:21.400Z,41.60
2022-11-18T22:23:48.490Z,43.85
2022-11-18T22:26:19.941Z,39.60
2022-11-18T22:28:47.698Z,39.20
2022-11-18T22:31:17.082Z,40.47
2022-11-18T22:33:43.580Z,41.65
2022-11-18T22:36:13.609Z,41.22
2022-11-18T22:38:41.383Z,42.90
2022-11-18T22:41:32.241Z,34.85
2022-11-18T22:44:03.961Z,39.55
2022-11-18T22:46:33.452Z,40.63
2022-11-18T22:49:00.033Z,38.45
2022-11-18T22:51:26.769Z,36.80
2022-11-18T22:54:09.797Z,33.05
2022-11-18T22:56:39.930Z,38.00
2022-11-18T22:59:20.269Z,39.67
2022-11-18T23:01:47.000Z,35.65
2022-11-18T23:04:13.503Z,37.80
2022-11-18T23:06:42.904Z,37.08
2022-11-18T23:09:10.042Z,38.13
2022-11-18T23:11:54.867Z,38.58
2022-11-18T23:14:21.353Z,36.95
2022-11-18T23:16:47.812Z,34.45
2022-11-18T23:19:17.291Z,38.17
2022-11-18T23:21:45.211Z,37.53
2022-11-18T23:24:16.098Z,38.10
2022-11-18T23:26:43.606Z,37.47
2022-11-18T23:29:11.905Z,38.67
2022-11-18T23:31:44.031Z,34.45
2022-11-18T23:34:15.061Z,35.95
2022-11-18T23:36:42.124Z,38.03
2022-11-18T23:39:09.237Z,39.03
2022-11-18T23:41:35.915Z,38.13
2022-11-18T23:44:02.685Z,35.78
2022-11-18T23:46:29.714Z,39.10
2022-11-18T23:48:56.508Z,35.03
2022-11-18T23:51:29.077Z,33.55
2022-11-18T23:53:59.256Z,32.55
2022-11-18T23:56:27.750Z,35.63
2022-11-18T23:59:01.728Z,35.80
